Time;durP1;ratioP1;P1;durP2;ratioP2;P2;SDS_P1;SDS_P2;PMS_P1;PMS_P2;Temp;Humidity;BMP_temperature;BMP_pressure;BME280_temperature;BME280_humidity;BME280_pressure;Samples;Min_cycle;Max_cycle;Signal;HPM_P1;HPM_P2
2022/08/12 00:44:43;;;;;;;5.13;4.47;;;26.10;45.00;;;;;;5077956;28;20195;-89
2022/08/12 00:47:10;;;;;;;4.70;4.20;;;26.00;45.00;;;;;;5077627;28;20581;-89
2022/08/12 00:49:37;;;;;;;5.20;4.70;;;26.10;44.90;;;;;;5077030;28;20545;-89
2022/08/12 00:52:05;;;;;;;4.63;4.23;;;26.10;44.80;;;;;;5076934;28;20274;-89
2022/08/12 00:54:46;;;;;;;5.73;4.40;;;26.10;44.80;;;;;;5077473;28;20179;-89
2022/08/12 00:57:22;;;;;;;4.70;4.30;;;26.20;44.80;;;;;;5077745;28;20218;-89
2022/08/12 00:59:54;;;;;;;6.37;4.43;;;26.20;44.70;;;;;;5076160;28;20172;-89
2022/08/12 01:02:27;;;;;;;5.03;4.33;;;26.20;44.70;;;;;;5077094;28;20178;-89
2022/08/12 01:13:26;;;;;;;5.07;4.57;;;26.10;45.00;;;;;;5076157;28;20194;-89
2022/08/12 01:15:55;;;;;;;6.23;4.63;;;26.10;44.90;;;;;;5076198;28;20466;-89
2022/08/12 01:18:27;;;;;;;5.37;4.83;;;26.10;45.10;;;;;;5076215;28;20206;-89
2022/08/12 01:21:15;;;;;;;6.23;4.70;;;26.00;45.30;;;;;;5076152;28;20182;-89
2022/08/12 01:23:58;;;;;;;5.47;4.77;;;26.00;45.30;;;;;;5075978;28;20164;-89
2022/08/12 01:26:24;;;;;;;5.43;4.50;;;26.00;45.40;;;;;;5074945;28;20171;-89
2022/08/12 01:28:58;;;;;;;6.97;5.27;;;25.90;45.80;;;;;;5075701;28;20167;-89
2022/08/12 01:31:28;;;;;;;6.13;5.23;;;25.80;46.00;;;;;;5073119;28;20221;-89
2022/08/12 01:34:07;;;;;;;7.03;4.93;;;25.70;46.00;;;;;;5072550;28;20451;-89
2022/08/12 01:36:43;;;;;;;5.33;4.73;;;25.70;45.80;;;;;;5072609;28;20297;-89
2022/08/12 01:39:09;;;;;;;7.10;4.73;;;25.70;45.70;;;;;;5072192;28;20211;-89
2022/08/12 01:41:44;;;;;;;5.37;4.83;;;25.70;45.70;;;;;;5072851;28;20336;-89
2022/08/12 01:44:12;;;;;;;5.57;4.57;;;25.70;45.60;;;;;;5073096;28;20171;-89
2022/08/12 01:46:56;;;;;;;5.13;4.63;;;25.80;45.60;;;;;;5073594;28;20423;-89
2022/08/12 01:49:47;;;;;;;6.07;4.67;;;25.80;45.60;;;;;;5075203;28;20187;-89
2022/08/12 01:52:46;;;;;;;4.90;4.43;;;25.70;45.60;;;;;;5075276;28;20207;-89
2022/08/12 01:55:14;;;;;;;5.13;4.63;;;25.70;45.60;;;;;;5075787;28;20252;-89
2022/08/12 01:57:49;;;;;;;5.47;4.30;;;25.80;45.60;;;;;;5076354;28;20246;-89
2022/08/12 02:00:17;;;;;;;5.53;4.27;;;25.70;45.40;;;;;;5074652;28;20167;-90
2022/08/12 02:02:55;;;;;;;5.33;4.30;;;25.80;45.60;;;;;;5075690;28;20606;-91
2022/08/12 02:11:48;;;;;;;7.07;4.83;;;25.70;45.80;;;;;;5076188;28;20464;-91
2022/08/12 02:14:35;;;;;;;7.17;4.80;;;25.60;46.10;;;;;;5075560;28;20179;-90
2022/08/12 02:17:22;;;;;;;6.87;5.00;;;25.50;46.40;;;;;;5076829;28;20234;-90
2022/08/12 02:20:22;;;;;;;5.40;4.90;;;25.30;46.40;;;;;;5075342;28;20569;-90
2022/08/12 02:22:50;;;;;;;5.93;5.10;;;25.20;46.60;;;;;;5075372;28;20187;-90
2022/08/12 02:25:32;;;;;;;4.80;4.40;;;25.10;46.60;;;;;;5076123;28;20251;-90
2022/08/12 02:28:00;;;;;;;6.17;4.60;;;25.00;46.60;;;;;;5075127;28;20172;-90
2022/08/12 02:30:31;;;;;;;4.83;4.33;;;25.10;46.40;;;;;;5075460;28;20175;-90
2022/08/12 02:32:59;;;;;;;5.47;4.93;;;25.10;46.60;;;;;;5074602;28;20182;-90
2022/08/12 02:35:28;;;;;;;7.73;4.97;;;25.00;46.60;;;;;;5073549;28;20552;-90
2022/08/12 02:37:58;;;;;;;7.20;4.57;;;25.00;46.70;;;;;;5072956;28;20205;-90
2022/08/12 02:40:26;;;;;;;5.90;4.43;;;24.90;46.90;;;;;;5073087;28;20168;-90
2022/08/12 02:43:13;;;;;;;6.00;4.40;;;24.80;46.90;;;;;;5072857;28;20236;-89
2022/08/12 02:45:52;;;;;;;4.93;4.43;;;24.80;46.80;;;;;;5072422;28;20414;-90
2022/08/12 02:48:29;;;;;;;6.60;4.63;;;24.80;46.80;;;;;;5072694;28;20606;-90
2022/08/12 02:51:04;;;;;;;5.33;4.30;;;24.80;46.60;;;;;;5072350;28;20171;-90
2022/08/12 02:53:33;;;;;;;4.50;4.17;;;24.90;46.40;;;;;;5073657;28;20186;-90
2022/08/12 02:56:03;;;;;;;7.63;4.63;;;25.00;46.30;;;;;;5074118;28;20583;-90
2022/08/12 02:58:31;;;;;;;5.43;4.20;;;25.10;46.10;;;;;;5072732;28;20202;-90
2022/08/12 03:01:00;;;;;;;5.77;4.60;;;25.10;46.20;;;;;;5073609;28;20170;-90
2022/08/12 03:03:29;;;;;;;6.53;4.70;;;25.10;46.50;;;;;;5072356;28;20182;-90
2022/08/12 03:06:11;;;;;;;8.13;4.90;;;25.00;46.80;;;;;;5072762;28;20607;-90
2022/08/12 03:08:42;;;;;;;7.20;5.30;;;24.90;46.90;;;;;;5072428;28;20171;-90
2022/08/12 03:11:18;;;;;;;7.83;4.93;;;24.80;47.10;;;;;;5070577;28;20175;-90
2022/08/12 03:13:52;;;;;;;5.23;4.60;;;24.70;47.00;;;;;;5072266;28;20190;-90
2022/08/12 03:16:21;;;;;;;6.20;4.63;;;24.70;47.30;;;;;;5071734;28;20179;-90
2022/08/12 03:18:49;;;;;;;4.97;4.50;;;24.60;47.10;;;;;;5071943;28;20259;-90
2022/08/12 03:21:16;;;;;;;5.10;4.60;;;24.70;46.70;;;;;;5071704;28;20191;-90
2022/08/12 03:23:45;;;;;;;4.93;4.43;;;24.80;46.60;;;;;;5071581;28;20210;-90
2022/08/12 03:26:13;;;;;;;6.23;4.67;;;24.80;46.70;;;;;;5069680;28;20248;-90
2022/08/12 03:28:49;;;;;;;6.57;5.40;;;24.80;46.60;;;;;;5071008;28;20175;-90
2022/08/12 03:31:30;;;;;;;7.83;5.60;;;24.80;46.90;;;;;;5071589;28;20175;-90
2022/08/12 03:34:08;;;;;;;6.50;4.60;;;24.80;46.90;;;;;;5071670;28;20553;-91
2022/08/12 03:36:36;;;;;;;5.10;4.60;;;24.80;46.60;;;;;;5072062;28;20178;-89
2022/08/12 03:41:47;;;;;;;6.27;5.67;;;24.80;46.80;;;;;;5070931;28;20203;-89
2022/08/12 04:00:53;;;;;;;6.67;5.30;;;24.80;46.40;;;;;;5072880;28;20175;-89
2022/08/12 04:06:08;;;;;;;6.23;5.53;;;24.80;46.30;;;;;;5071872;28;20175;-89
2022/08/12 04:08:34;;;;;;;6.03;5.13;;;24.70;47.10;;;;;;5069915;28;20167;-90
2022/08/12 04:13:47;;;;;;;6.17;5.30;;;24.50;47.20;;;;;;5056732;28;20093;-90
2022/08/12 04:16:15;;;;;;;6.63;5.40;;;24.40;47.10;;;;;;5072167;28;20197;-90
2022/08/12 04:18:42;;;;;;;5.47;4.80;;;24.40;47.10;;;;;;5073934;28;20530;-90
2022/08/12 04:21:09;;;;;;;6.60;5.33;;;24.40;47.00;;;;;;5071969;28;20580;-90
2022/08/12 04:23:41;;;;;;;5.90;5.00;;;24.40;47.10;;;;;;5070480;28;20182;-90
2022/08/12 04:26:08;;;;;;;6.53;5.83;;;24.40;46.90;;;;;;5070269;28;20182;-90
2022/08/12 04:28:34;;;;;;;7.93;5.57;;;24.50;47.20;;;;;;5075499;28;20672;-90
2022/08/12 04:31:00;;;;;;;6.17;5.30;;;24.40;47.10;;;;;;5071497;28;20193;-90
2022/08/12 04:33:26;;;;;;;6.97;5.20;;;24.40;47.30;;;;;;5071384;28;20179;-90
2022/08/12 04:35:53;;;;;;;6.77;5.80;;;24.40;47.10;;;;;;5072160;28;20211;-90
2022/08/12 04:38:20;;;;;;;7.63;5.90;;;24.40;47.10;;;;;;5074981;28;20493;-90
2022/08/12 04:40:46;;;;;;;9.47;5.50;;;24.30;47.30;;;;;;5074442;28;20562;-90
2022/08/12 04:43:12;;;;;;;6.53;5.50;;;24.30;47.40;;;;;;5073405;28;20225;-89
2022/08/12 04:45:38;;;;;;;6.13;4.90;;;24.30;47.40;;;;;;5073507;28;20232;-89
2022/08/12 04:48:05;;;;;;;6.37;5.27;;;24.30;47.10;;;;;;5073721;28;20209;-89
2022/08/12 04:50:45;;;;;;;8.80;6.30;;;24.30;47.20;;;;;;5074770;28;20591;-89
2022/08/12 04:59:55;;;;;;;6.03;5.00;;;24.30;47.60;;;;;;5071098;28;20226;-89
2022/08/12 05:02:21;;;;;;;7.87;5.20;;;24.30;47.60;;;;;;5071393;28;20195;-89
2022/08/12 05:04:54;;;;;;;6.83;5.10;;;24.30;47.40;;;;;;5068445;28;20175;-90
2022/08/12 05:07:21;;;;;;;7.27;5.50;;;24.40;47.50;;;;;;5072265;28;20278;-89
2022/08/12 05:09:47;;;;;;;7.67;5.87;;;24.40;47.50;;;;;;5069639;28;20471;-89
2022/08/12 05:12:16;;;;;;;5.93;5.30;;;24.50;47.20;;;;;;5070226;28;20742;-90
2022/08/12 05:14:42;;;;;;;7.27;5.90;;;24.60;47.10;;;;;;5070423;28;20187;-90
2022/08/12 05:17:08;;;;;;;8.53;5.73;;;24.60;46.90;;;;;;5070604;28;20183;-91
2022/08/12 05:19:34;;;;;;;6.67;5.97;;;24.80;47.00;;;;;;5066370;28;20190;-91
2022/08/12 05:22:01;;;;;;;6.40;5.70;;;24.80;47.10;;;;;;5067505;28;20160;-91
2022/08/12 05:24:26;;;;;;;6.33;5.03;;;24.90;46.90;;;;;;5065754;28;20591;-91
2022/08/12 05:26:53;;;;;;;8.77;5.87;;;25.00;46.60;;;;;;5065432;28;20171;-91
2022/08/12 05:29:19;;;;;;;5.73;5.23;;;25.10;46.80;;;;;;5063857;28;20221;-90
2022/08/12 05:31:45;;;;;;;5.90;5.00;;;25.10;46.40;;;;;;5061696;28;20167;-91
2022/08/12 05:34:14;;;;;;;7.37;6.27;;;25.20;46.60;;;;;;5061658;28;20195;-91
2022/08/12 05:36:43;;;;;;;12.33;6.67;;;25.30;46.70;;;;;;5063016;28;20175;-91
2022/08/12 05:39:10;;;;;;;7.57;5.93;;;25.40;47.70;;;;;;5056626;28;20286;-91
2022/08/12 05:41:36;;;;;;;8.47;5.67;;;25.50;47.80;;;;;;5060998;28;20387;-91
2022/08/12 05:44:33;;;;;;;10.03;6.80;;;25.60;46.80;;;;;;5051875;28;20561;-91
2022/08/12 05:46:58;;;;;;;6.60;5.30;;;25.70;47.10;;;;;;5062403;28;20257;-91
2022/08/12 05:49:25;;;;;;;6.33;5.00;;;25.90;46.30;;;;;;5043896;28;20172;-90
2022/08/12 05:51:51;;;;;;;6.10;5.40;;;26.00;45.60;;;;;;5022879;28;20493;-91
2022/08/12 05:54:17;;;;;;;6.83;5.37;;;26.20;45.50;;;;;;5060825;28;20238;-91
2022/08/12 05:56:44;;;;;;;7.27;4.93;;;26.30;45.20;;;;;;5061352;28;20471;-91
2022/08/12 05:59:11;;;;;;;6.13;5.27;;;26.40;45.10;;;;;;5063508;28;20483;-91
2022/08/12 06:01:38;;;;;;;7.30;5.30;;;26.60;45.00;;;;;;5038434;28;20387;-91
2022/08/12 06:04:05;;;;;;;5.80;4.83;;;26.70;44.90;;;;;;5065236;28;20401;-91
2022/08/12 06:06:37;;;;;;;7.47;5.63;;;26.80;44.80;;;;;;5065609;28;20427;-91
2022/08/12 06:09:04;;;;;;;6.67;5.10;;;26.90;44.70;;;;;;5067000;28;20261;-91
2022/08/12 06:11:29;;;;;;;10.40;5.40;;;27.10;44.70;;;;;;5065256;28;20175;-91
2022/08/12 06:13:57;;;;;;;8.20;5.60;;;27.20;46.00;;;;;;5067469;28;20178;-91
2022/08/12 06:16:24;;;;;;;8.07;5.80;;;27.20;46.10;;;;;;5067703;28;20202;-92
2022/08/12 06:18:51;;;;;;;10.30;5.97;;;27.40;45.70;;;;;;5065091;28;20207;-90
2022/08/12 06:21:20;;;;;;;6.47;5.33;;;27.50;45.50;;;;;;5063248;28;20264;-91
2022/08/12 06:23:47;;;;;;;6.90;5.20;;;27.70;45.40;;;;;;5066270;28;20606;-90
2022/08/12 06:26:15;;;;;;;8.80;5.40;;;27.80;45.10;;;;;;5063140;28;20195;-90
2022/08/12 06:28:47;;;;;;;10.13;5.50;;;27.90;44.90;;;;;;5064062;28;20184;-90
2022/08/12 06:31:15;;;;;;;7.27;5.50;;;28.10;44.80;;;;;;5064060;28;20341;-90
2022/08/12 06:33:43;;;;;;;6.60;5.30;;;28.20;44.60;;;;;;5064243;28;20167;-90
2022/08/12 06:36:12;;;;;;;12.87;6.90;;;28.40;44.50;;;;;;5064044;28;20243;-90
2022/08/12 06:38:40;;;;;;;15.90;6.50;;;28.50;44.80;;;;;;5065771;28;20199;-90
2022/08/12 06:43:51;;;;;;;12.73;6.87;;;28.80;44.80;;;;;;5065657;28;20194;-90
2022/08/12 06:46:18;;;;;;;11.90;6.47;;;29.10;45.00;;;;;;5065138;28;20187;-90
2022/08/12 06:48:44;;;;;;;14.40;6.77;;;29.60;44.40;;;;;;5063025;28;20457;-89
2022/08/12 06:51:10;;;;;;;14.33;6.20;;;30.10;43.80;;;;;;5063384;28;20194;-90
2022/08/12 06:53:36;;;;;;;17.97;7.27;;;30.70;43.30;;;;;;5062182;28;20327;-90
2022/08/12 06:56:02;;;;;;;16.93;6.83;;;31.30;42.80;;;;;;5062411;28;20171;-91
2022/08/12 06:58:31;;;;;;;12.90;6.63;;;31.60;42.30;;;;;;5061272;28;20632;-91
2022/08/12 07:00:58;;;;;;;11.00;6.60;;;31.90;42.10;;;;;;5061468;28;20254;-92
2022/08/12 07:03:27;;;;;;;12.07;6.87;;;32.20;41.70;;;;;;5061279;28;20167;-92
2022/08/12 07:05:56;;;;;;;14.43;7.10;;;32.60;41.50;;;;;;5063671;28;20553;-92
2022/08/12 07:08:29;;;;;;;12.38;7.07;;;33.10;41.00;;;;;;5065045;28;20175;-92
2022/08/12 07:11:00;;;;;;;11.87;6.13;;;33.50;40.60;;;;;;5063479;28;20183;-92
2022/08/12 07:13:53;;;;;;;12.35;6.65;;;33.80;40.30;;;;;;5064997;28;20182;-92
2022/08/12 07:16:20;;;;;;;12.02;6.30;;;34.00;40.00;;;;;;5063197;28;20180;-92
2022/08/12 07:18:49;;;;;;;13.90;6.68;;;34.30;39.90;;;;;;5066269;28;20468;-92
2022/08/12 07:21:17;;;;;;;11.55;6.47;;;34.50;39.80;;;;;;5063034;28;20176;-91
2022/08/12 07:23:43;;;;;;;8.18;5.85;;;34.70;39.70;;;;;;5063858;28;20199;-91
2022/08/12 07:26:14;;;;;;;13.80;6.47;;;34.80;39.50;;;;;;5061877;28;20196;-92
2022/08/12 07:28:42;;;;;;;11.85;6.30;;;35.10;39.40;;;;;;5064313;28;20198;-91
2022/08/12 07:31:11;;;;;;;10.85;6.57;;;35.20;39.20;;;;;;5061310;28;20186;-92
2022/08/12 07:33:38;;;;;;;10.48;6.43;;;35.60;39.10;;;;;;5060423;28;20270;-92
2022/08/12 07:36:07;;;;;;;8.45;5.65;;;35.70;39.20;;;;;;5063442;28;20175;-91
2022/08/12 07:38:45;;;;;;;10.88;6.45;;;36.10;38.60;;;;;;5062679;28;20374;-92
2022/08/12 07:41:24;;;;;;;10.43;6.45;;;36.40;38.40;;;;;;5064372;28;20160;-92
2022/08/12 07:43:55;;;;;;;9.60;5.68;;;36.50;38.20;;;;;;5061448;28;20325;-91
2022/08/12 07:46:31;;;;;;;9.05;6.50;;;36.70;38.10;;;;;;5064796;28;20171;-92
2022/08/12 07:49:03;;;;;;;9.43;6.00;;;36.80;38.00;;;;;;5065184;28;20192;-90
2022/08/12 07:51:30;;;;;;;9.90;6.47;;;37.00;37.90;;;;;;5065539;28;20175;-91
2022/08/12 07:53:58;;;;;;;8.65;5.72;;;37.30;37.80;;;;;;5066012;28;20319;-92
2022/08/12 07:56:25;;;;;;;9.95;6.30;;;37.50;37.50;;;;;;5065818;28;20171;-92
2022/08/12 07:58:51;;;;;;;10.68;6.38;;;37.60;37.40;;;;;;5067969;28;20245;-91
2022/08/12 08:01:20;;;;;;;8.10;5.70;;;37.70;37.30;;;;;;5069607;28;20572;-92
2022/08/12 08:06:48;;;;;;;8.07;5.78;;;37.80;37.30;;;;;;5064468;28;20175;-91
2022/08/12 08:09:15;;;;;;;9.68;5.68;;;37.90;37.60;;;;;;5066996;28;20248;-92
2022/08/12 08:14:27;;;;;;;9.13;5.63;;;38.30;37.00;;;;;;5058603;28;20191;-91
2022/08/12 08:16:55;;;;;;;8.48;4.55;;;38.40;36.80;;;;;;5079789;28;20172;-91
2022/08/12 08:19:24;;;;;;;9.07;5.00;;;38.50;36.00;;;;;;5081872;28;20203;-92
2022/08/12 08:21:53;;;;;;;14.30;5.03;;;38.40;36.40;;;;;;5078948;28;20168;-91
2022/08/12 08:24:19;;;;;;;7.55;4.70;;;38.50;36.60;;;;;;5079024;28;20169;-90
2022/08/12 08:26:48;;;;;;;7.65;4.93;;;38.70;36.40;;;;;;5077929;28;20172;-91
2022/08/12 08:29:15;;;;;;;6.95;4.43;;;38.70;36.20;;;;;;5079256;28;20822;-92
2022/08/12 08:31:44;;;;;;;8.20;4.00;;;38.90;35.90;;;;;;5046118;28;20177;-91
2022/08/12 08:34:11;;;;;;;5.07;3.53;;;38.90;35.40;;;;;;5080031;28;20274;-91
2022/08/12 08:36:38;;;;;;;7.55;4.15;;;39.00;35.30;;;;;;5079381;28;20433;-91
2022/08/12 08:39:05;;;;;;;4.65;3.55;;;39.30;35.40;;;;;;5081248;28;20223;-91
2022/08/12 08:44:15;;;;;;;8.60;3.95;;;39.50;34.90;;;;;;5046520;28;20261;-91
2022/08/12 08:46:43;;;;;;;5.72;3.70;;;39.70;34.90;;;;;;5079574;28;20477;-92
2022/08/12 08:49:10;;;;;;;6.40;3.80;;;39.70;34.70;;;;;;5046744;28;20447;-92
2022/08/12 08:51:37;;;;;;;5.82;3.40;;;39.70;34.60;;;;;;5047342;28;20523;-91
2022/08/12 08:54:05;;;;;;;3.75;3.45;;;39.60;34.00;;;;;;5077044;28;20174;-92
2022/08/12 08:56:32;;;;;;;3.95;3.40;;;39.70;34.20;;;;;;5075978;28;20176;-92
2022/08/12 08:58:58;;;;;;;5.40;3.78;;;39.80;34.10;;;;;;5077114;28;20261;-91
2022/08/12 09:01:25;;;;;;;3.70;3.40;;;39.80;34.20;;;;;;5076033;28;20436;-92
2022/08/12 09:03:51;;;;;;;4.25;3.83;;;39.90;34.20;;;;;;5079046;28;20165;-92
2022/08/12 09:06:19;;;;;;;3.40;3.10;;;40.00;34.30;;;;;;5076170;28;20179;-91
2022/08/12 09:08:45;;;;;;;4.88;3.40;;;40.00;34.10;;;;;;5081813;28;20180;-92
2022/08/12 09:13:55;;;;;;;5.28;3.42;;;40.10;33.90;;;;;;5044600;28;20214;-93
2022/08/12 09:16:21;;;;;;;4.88;3.67;;;40.10;33.60;;;;;;5042193;28;20251;-92
2022/08/12 09:18:47;;;;;;;4.93;3.38;;;40.10;33.90;;;;;;5076933;28;20310;-92
2022/08/12 09:21:13;;;;;;;5.28;3.40;;;40.10;33.80;;;;;;5076526;28;20351;-92
2022/08/12 09:23:39;;;;;;;5.57;3.33;;;40.00;33.30;;;;;;5076576;28;20169;-92
2022/08/12 09:26:08;;;;;;;7.65;3.17;;;39.80;33.80;;;;;;5076993;28;20168;-92
2022/08/12 09:28:35;;;;;;;4.28;3.45;;;39.90;33.50;;;;;;5045753;28;20343;-92
2022/08/12 09:31:04;;;;;;;5.25;3.40;;;39.90;33.60;;;;;;5060902;28;20184;-92
2022/08/12 09:33:32;;;;;;;4.00;3.60;;;40.00;33.80;;;;;;5077393;28;20251;-92
2022/08/12 09:36:04;;;;;;;6.05;3.40;;;40.00;33.90;;;;;;5075624;28;20218;-92
2022/08/12 09:38:30;;;;;;;3.80;3.35;;;40.00;33.60;;;;;;5042822;28;20207;-93
2022/08/12 09:40:56;;;;;;;4.43;3.40;;;40.00;33.20;;;;;;5077473;28;20169;-92
2022/08/12 09:46:16;;;;;;;4.15;3.10;;;40.00;31.30;;;;;;5043142;28;20411;-91
2022/08/12 09:48:43;;;;;;;4.90;3.63;;;40.10;33.10;;;;;;5040390;28;20188;-91
2022/08/12 09:51:10;;;;;;;3.80;3.22;;;40.20;33.30;;;;;;5072524;28;20445;-93
2022/08/12 09:53:36;;;;;;;4.55;3.10;;;39.90;32.90;;;;;;5075643;28;20180;-92
2022/08/12 09:56:03;;;;;;;3.67;2.72;;;39.90;32.80;;;;;;5043335;28;20164;-91
2022/08/12 09:58:29;;;;;;;3.20;2.90;;;39.80;32.70;;;;;;5075310;28;20204;-91
2022/08/12 10:00:56;;;;;;;3.55;2.80;;;39.40;32.50;;;;;;5075539;28;20472;-92
2022/08/12 10:03:26;;;;;;;3.80;2.80;;;39.10;33.30;;;;;;5077661;28;20338;-92
2022/08/12 10:05:53;;;;;;;3.15;2.85;;;38.60;33.60;;;;;;5077658;28;20176;-91
2022/08/12 10:08:20;;;;;;;3.53;2.83;;;37.80;34.10;;;;;;5077050;28;20281;-91
2022/08/12 10:13:41;;;;;;;3.53;2.50;;;36.30;35.10;;;;;;5043397;28;20167;-91
2022/08/12 10:16:19;;;;;;;3.05;2.63;;;35.70;35.30;;;;;;5078054;28;20189;-89
2022/08/12 10:19:15;;;;;;;2.90;2.60;;;35.30;35.30;;;;;;5076149;28;20211;-90
2022/08/12 10:21:41;;;;;;;4.55;2.80;;;35.00;36.20;;;;;;5035789;28;20179;-90
2022/08/12 10:24:22;;;;;;;3.60;2.72;;;34.60;36.20;;;;;;5072564;28;20168;-91
2022/08/12 10:29:41;;;;;;;4.05;2.83;;;34.20;36.40;;;;;;5040395;28;20402;-91
2022/08/12 10:32:11;;;;;;;2.80;2.60;;;34.00;36.50;;;;;;5042826;28;20172;-91
2022/08/12 10:34:38;;;;;;;2.95;2.60;;;33.90;36.80;;;;;;5073892;28;20176;-90
2022/08/12 10:37:05;;;;;;;3.03;2.83;;;33.80;36.90;;;;;;5074066;28;20307;-90
2022/08/12 10:39:36;;;;;;;3.60;2.67;;;33.70;37.10;;;;;;5041321;28;20164;-91
2022/08/12 10:44:48;;;;;;;3.92;2.88;;;33.60;37.30;;;;;;5038971;28;20464;-91
2022/08/12 10:47:19;;;;;;;3.17;2.70;;;33.50;37.50;;;;;;5038114;28;20265;-90
2022/08/12 10:49:46;;;;;;;2.72;2.50;;;33.40;37.70;;;;;;5075137;28;20176;-91
2022/08/12 10:52:12;;;;;;;5.38;2.70;;;33.30;38.00;;;;;;5074293;28;20168;-90
2022/08/12 10:54:40;;;;;;;4.78;2.85;;;33.10;38.20;;;;;;5071604;28;20184;-90
2022/08/12 10:57:06;;;;;;;3.60;2.60;;;33.10;38.10;;;;;;5074412;28;20530;-90
2022/08/12 10:59:32;;;;;;;2.72;2.53;;;33.00;38.40;;;;;;5077531;28;20550;-90
2022/08/12 11:01:59;;;;;;;2.67;2.47;;;32.90;38.30;;;;;;5042362;28;20178;-91
2022/08/12 11:04:27;;;;;;;4.65;2.42;;;32.80;37.50;;;;;;5076682;28;20373;-91
2022/08/12 11:06:55;;;;;;;3.58;2.55;;;32.70;37.90;;;;;;5076709;28;20318;-90
2022/08/12 11:09:29;;;;;;;3.25;2.40;;;32.70;38.10;;;;;;5075245;28;20172;-90
2022/08/12 11:11:58;;;;;;;3.00;2.30;;;32.60;38.10;;;;;;5073551;28;20211;-90
2022/08/12 11:14:28;;;;;;;2.65;2.45;;;32.60;38.20;;;;;;5067231;28;20261;-91
2022/08/12 11:16:56;;;;;;;2.60;2.40;;;32.50;38.50;;;;;;5070377;28;20392;-90
2022/08/12 11:19:26;;;;;;;5.00;2.50;;;32.50;38.40;;;;;;5040973;28;20390;-91
2022/08/12 11:21:55;;;;;;;3.88;2.63;;;32.50;38.40;;;;;;5046013;28;20179;-91
2022/08/12 11:24:23;;;;;;;2.70;2.45;;;32.40;35.70;;;;;;5079132;28;20168;-92
2022/08/12 11:26:50;;;;;;;3.55;2.63;;;32.40;38.00;;;;;;5077988;28;20302;-91
2022/08/12 11:29:18;;;;;;;3.38;2.55;;;32.30;35.40;;;;;;5075407;28;20176;-90
2022/08/12 11:31:44;;;;;;;3.03;2.72;;;32.40;36.60;;;;;;5078553;28;20227;-91
2022/08/12 11:34:10;;;;;;;3.83;2.40;;;32.30;37.20;;;;;;5047233;28;20404;-91
2022/08/12 11:36:36;;;;;;;4.35;2.50;;;32.30;38.00;;;;;;5077917;28;20199;-92
2022/08/12 11:39:03;;;;;;;3.55;2.53;;;32.20;35.90;;;;;;5079336;28;20302;-90
2022/08/12 11:41:28;;;;;;;3.00;2.00;;;32.20;37.40;;;;;;5080337;28;20319;-91
2022/08/12 11:43:54;;;;;;;4.65;2.20;;;32.10;37.90;;;;;;5080300;28;20168;-92
2022/08/12 11:46:20;;;;;;;3.13;2.17;;;32.10;38.20;;;;;;5079627;28;20354;-91
2022/08/12 11:48:46;;;;;;;2.50;2.30;;;32.10;35.40;;;;;;5080862;28;20192;-91
2022/08/12 11:51:12;;;;;;;2.53;2.30;;;32.10;35.40;;;;;;5079806;28;20172;-91
2022/08/12 11:53:37;;;;;;;2.78;2.28;;;32.10;36.80;;;;;;5080108;28;20670;-92
2022/08/12 11:56:07;;;;;;;2.60;2.40;;;32.00;37.70;;;;;;5081516;28;20678;-92
2022/08/12 11:58:33;;;;;;;2.88;2.28;;;31.90;38.20;;;;;;5082509;28;20208;-92
2022/08/12 12:00:59;;;;;;;3.50;2.20;;;31.90;38.60;;;;;;5078278;28;20581;-91
2022/08/12 12:03:25;;;;;;;2.63;2.20;;;31.90;38.50;;;;;;5076853;28;20168;-93
2022/08/12 12:05:51;;;;;;;2.42;2.22;;;31.80;36.20;;;;;;5077560;28;20473;-91
2022/08/12 12:08:24;;;;;;;2.75;2.50;;;31.80;37.40;;;;;;5043050;28;20454;-91
2022/08/12 12:10:51;;;;;;;3.28;2.20;;;31.80;37.00;;;;;;5079157;28;20333;-91
2022/08/12 12:13:18;;;;;;;2.72;2.33;;;31.70;38.10;;;;;;5079085;28;20365;-91
2022/08/12 12:15:44;;;;;;;3.22;2.22;;;31.60;38.20;;;;;;5077004;28;20329;-90
2022/08/12 12:18:20;;;;;;;2.83;2.50;;;31.60;38.30;;;;;;5075827;28;20610;-91
2022/08/12 12:20:47;;;;;;;2.72;2.38;;;31.50;38.50;;;;;;5077191;28;20304;-92
2022/08/12 12:23:12;;;;;;;5.40;2.40;;;31.40;35.30;;;;;;5076142;28;20380;-92
2022/08/12 12:25:38;;;;;;;3.55;2.40;;;31.40;34.50;;;;;;5078474;28;20306;-92
2022/08/12 12:28:04;;;;;;;3.63;2.30;;;31.40;36.80;;;;;;5077950;28;20172;-91
2022/08/12 12:30:30;;;;;;;4.25;2.30;;;31.40;37.40;;;;;;5079438;28;20562;-91
2022/08/12 12:32:57;;;;;;;3.25;2.40;;;31.40;38.00;;;;;;5077747;28;20168;-91
2022/08/12 12:35:22;;;;;;;4.50;2.80;;;31.30;38.20;;;;;;5074432;28;20215;-93
2022/08/12 12:38:18;;;;;;;3.13;2.40;;;31.20;36.70;;;;;;5074183;28;20601;-93
2022/08/12 12:40:46;;;;;;;5.45;2.65;;;31.30;34.70;;;;;;5027179;28;20172;-92
2022/08/12 12:43:13;;;;;;;3.25;2.75;;;31.30;34.60;;;;;;5073437;28;20412;-92
2022/08/12 12:45:40;;;;;;;4.97;2.45;;;31.30;35.60;;;;;;5078014;28;20294;-91
2022/08/12 12:48:08;;;;;;;8.88;2.90;;;31.30;34.80;;;;;;5079117;28;20192;-92
2022/08/12 12:50:43;;;;;;;3.88;2.50;;;31.30;35.50;;;;;;5078116;28;20212;-92
2022/08/12 12:53:11;;;;;;;3.28;2.55;;;31.20;35.00;;;;;;5045392;28;20416;-91
2022/08/12 12:55:37;;;;;;;4.65;2.40;;;31.20;36.90;;;;;;5078861;28;20557;-90
2022/08/12 12:58:04;;;;;;;3.47;2.40;;;31.20;37.20;;;;;;5078116;28;20204;-91
2022/08/12 13:00:31;;;;;;;2.38;2.17;;;31.10;37.90;;;;;;5079709;28;20168;-90
2022/08/12 13:02:58;;;;;;;5.90;2.45;;;31.10;35.30;;;;;;5080656;28;20191;-91
2022/08/12 13:05:30;;;;;;;3.20;2.30;;;31.20;36.80;;;;;;5078767;28;20539;-90
2022/08/12 13:07:58;;;;;;;3.92;2.10;;;31.10;36.90;;;;;;5076803;28;20419;-90
2022/08/12 13:10:24;;;;;;;5.22;2.50;;;31.10;36.10;;;;;;5076230;28;20193;-91
2022/08/12 13:12:51;;;;;;;3.63;2.25;;;31.10;36.40;;;;;;5077206;28;20180;-91
2022/08/12 13:15:17;;;;;;;3.63;2.70;;;31.10;37.50;;;;;;5077507;28;20176;-90
2022/08/12 13:17:48;;;;;;;2.85;2.28;;;31.10;37.50;;;;;;5044550;28;20211;-91
2022/08/12 13:20:19;;;;;;;3.15;2.17;;;31.10;36.80;;;;;;5077130;28;20172;-91
2022/08/12 13:22:46;;;;;;;2.72;2.13;;;31.10;37.80;;;;;;5045383;28;20157;-91
2022/08/12 13:25:14;;;;;;;3.35;2.20;;;31.10;38.20;;;;;;5078830;28;20172;-91
2022/08/12 13:27:46;;;;;;;2.63;2.28;;;30.90;38.30;;;;;;5078807;28;20191;-91
2022/08/12 13:30:19;;;;;;;2.72;2.13;;;30.80;37.80;;;;;;5078734;28;20267;-91
2022/08/12 13:32:54;;;;;;;2.38;2.08;;;30.80;38.20;;;;;;5079748;28;20187;-92
2022/08/12 13:35:20;;;;;;;2.78;1.90;;;30.80;38.50;;;;;;5046637;28;20529;-90
2022/08/12 13:37:52;;;;;;;4.05;2.30;;;30.80;38.60;;;;;;5080586;28;20212;-90
2022/08/12 13:40:23;;;;;;;2.50;2.10;;;30.70;37.90;;;;;;5080741;28;20211;-90
2022/08/12 13:42:52;;;;;;;2.63;2.30;;;30.70;37.10;;;;;;5080729;28;20164;-89
2022/08/12 13:45:18;;;;;;;4.93;2.10;;;30.70;38.30;;;;;;5077396;28;20175;-89
2022/08/12 13:48:04;;;;;;;3.30;2.20;;;30.70;38.50;;;;;;5078460;28;20350;-90
2022/08/12 13:50:37;;;;;;;4.63;2.20;;;30.60;38.40;;;;;;5078614;28;20176;-90
2022/08/12 13:53:09;;;;;;;2.72;1.90;;;30.60;38.30;;;;;;5080027;28;20168;-89
2022/08/12 13:55:37;;;;;;;4.90;2.10;;;30.50;38.30;;;;;;5080259;28;20168;-90
2022/08/12 13:58:06;;;;;;;3.88;2.40;;;30.50;38.10;;;;;;5078480;28;20659;-90
2022/08/12 14:00:35;;;;;;;5.47;2.28;;;30.60;38.50;;;;;;5076226;28;20419;-90
2022/08/12 14:03:01;;;;;;;5.03;2.28;;;30.60;37.20;;;;;;5093778;28;20270;-90
2022/08/12 14:05:27;;;;;;;4.55;2.50;;;30.60;36.70;;;;;;5063818;28;20369;-89
2022/08/12 14:08:04;;;;;;;2.38;2.03;;;30.70;37.90;;;;;;5065791;28;20403;-91
2022/08/12 14:10:35;;;;;;;2.60;2.13;;;30.70;38.10;;;;;;5063935;28;20171;-91
2022/08/12 14:13:11;;;;;;;2.40;2.15;;;30.70;38.50;;;;;;5063748;28;20195;-91
2022/08/12 14:15:49;;;;;;;3.33;2.08;;;30.70;38.20;;;;;;5063762;28;20190;-91
2022/08/12 14:18:17;;;;;;;3.50;2.10;;;30.60;37.60;;;;;;5064347;28;20744;-91
2022/08/12 14:20:46;;;;;;;2.60;2.40;;;30.60;37.20;;;;;;5064249;28;20168;-91
2022/08/12 14:23:12;;;;;;;2.80;2.00;;;30.70;36.40;;;;;;5063207;28;20207;-90
2022/08/12 14:25:39;;;;;;;3.15;2.30;;;30.70;36.80;;;;;;5061766;28;20172;-91
2022/08/12 14:28:17;;;;;;;5.13;2.45;;;30.70;37.40;;;;;;5064468;28;20516;-91
2022/08/12 14:30:55;;;;;;;4.35;2.45;;;30.70;37.10;;;;;;5065600;28;20171;-92
2022/08/12 14:33:23;;;;;;;3.58;2.22;;;30.60;37.60;;;;;;5064044;28;20434;-92
2022/08/12 14:35:51;;;;;;;7.20;2.40;;;30.70;37.80;;;;;;5063058;28;20176;-91
2022/08/12 14:38:23;;;;;;;3.15;2.47;;;30.60;37.50;;;;;;5063249;28;20203;-91
2022/08/12 14:40:51;;;;;;;6.13;2.70;;;30.70;36.40;;;;;;5060671;28;20572;-91
2022/08/12 14:43:18;;;;;;;2.17;1.98;;;30.70;35.40;;;;;;5064504;28;20577;-92
2022/08/12 14:45:45;;;;;;;4.68;2.25;;;30.70;36.90;;;;;;5062782;28;20163;-91
2022/08/12 14:48:12;;;;;;;2.90;2.20;;;30.70;36.60;;;;;;5060673;28;20186;-91
2022/08/12 14:50:39;;;;;;;3.42;2.30;;;30.70;36.40;;;;;;5062394;28;20183;-91
2022/08/12 14:53:09;;;;;;;4.93;2.10;;;30.70;36.50;;;;;;5064524;28;20233;-91